sensor_id;sensor_type;location;lat;lon;timestamp;temperature;humidity
75153;HTU21D;63734;45.218;36.708;2023-04-28T00:02:01;13.98;96.08
75153;HTU21D;63734;45.218;36.708;2023-04-28T00:04:28;13.99;96.04
75153;HTU21D;63734;45.218;36.708;2023-04-28T00:06:54;14.01;95.95
75153;HTU21D;63734;45.218;36.708;2023-04-28T00:09:20;14.04;96.01
75153;HTU21D;63734;45.218;36.708;2023-04-28T00:11:46;14.04;96.02
75153;HTU21D;63734;45.218;36.708;2023-04-28T00:14:12;14.06;95.99
75153;HTU21D;63734;45.218;36.708;2023-04-28T00:16:38;14.06;95.84
75153;HTU21D;63734;45.218;36.708;2023-04-28T00:19:04;14.06;95.76
75153;HTU21D;63734;45.218;36.708;2023-04-28T00:21:30;14.06;95.68
75153;HTU21D;63734;45.218;36.708;2023-04-28T00:23:56;14.06;95.64
75153;HTU21D;63734;45.218;36.708;2023-04-28T00:26:22;14.07;95.59
75153;HTU21D;63734;45.218;36.708;2023-04-28T00:28:49;14.08;95.64
75153;HTU21D;63734;45.218;36.708;2023-04-28T00:31:15;14.07;95.65
75153;HTU21D;63734;45.218;36.708;2023-04-28T00:33:41;14.05;95.62
75153;HTU21D;63734;45.218;36.708;2023-04-28T00:36:08;14.06;95.55
75153;HTU21D;63734;45.218;36.708;2023-04-28T00:38:36;14.05;95.48
75153;HTU21D;63734;45.218;36.708;2023-04-28T00:41:02;14.07;95.50
75153;HTU21D;63734;45.218;36.708;2023-04-28T00:43:28;14.05;95.45
75153;HTU21D;63734;45.218;36.708;2023-04-28T00:45:54;14.06;95.47
75153;HTU21D;63734;45.218;36.708;2023-04-28T00:48:21;14.05;95.35
75153;HTU21D;63734;45.218;36.708;2023-04-28T00:50:48;14.04;95.32
75153;HTU21D;63734;45.218;36.708;2023-04-28T00:53:14;14.03;95.27
75153;HTU21D;63734;45.218;36.708;2023-04-28T00:55:40;14.01;95.19
75153;HTU21D;63734;45.218;36.708;2023-04-28T00:58:07;14.03;95.14
75153;HTU21D;63734;45.218;36.708;2023-04-28T01:00:33;14.03;95.09
75153;HTU21D;63734;45.218;36.708;2023-04-28T01:02:59;14.01;95.06
75153;HTU21D;63734;45.218;36.708;2023-04-28T01:05:28;14.01;95.06
75153;HTU21D;63734;45.218;36.708;2023-04-28T01:07:55;13.99;95.03
75153;HTU21D;63734;45.218;36.708;2023-04-28T01:10:21;13.98;95.01
75153;HTU21D;63734;45.218;36.708;2023-04-28T01:12:47;13.97;95.01
75153;HTU21D;63734;45.218;36.708;2023-04-28T01:15:17;13.97;95.05
75153;HTU21D;63734;45.218;36.708;2023-04-28T01:17:46;13.97;95.04
75153;HTU21D;63734;45.218;36.708;2023-04-28T01:20:13;13.97;95.05
75153;HTU21D;63734;45.218;36.708;2023-04-28T01:22:39;13.95;95.12
75153;HTU21D;63734;45.218;36.708;2023-04-28T01:25:06;13.94;95.09
75153;HTU21D;63734;45.218;36.708;2023-04-28T01:27:32;13.92;95.22
75153;HTU21D;63734;45.218;36.708;2023-04-28T01:29:59;13.92;95.23
75153;HTU21D;63734;45.218;36.708;2023-04-28T01:32:25;13.91;95.39
75153;HTU21D;63734;45.218;36.708;2023-04-28T01:34:51;13.91;95.52
75153;HTU21D;63734;45.218;36.708;2023-04-28T01:37:17;13.90;95.63
75153;HTU21D;63734;45.218;36.708;2023-04-28T01:39:43;13.86;95.68
75153;HTU21D;63734;45.218;36.708;2023-04-28T01:42:09;13.83;95.56
75153;HTU21D;63734;45.218;36.708;2023-04-28T01:44:35;13.83;95.59
75153;HTU21D;63734;45.218;36.708;2023-04-28T01:47:00;13.82;95.71
75153;HTU21D;63734;45.218;36.708;2023-04-28T01:49:26;13.83;95.75
75153;HTU21D;63734;45.218;36.708;2023-04-28T01:51:52;13.80;95.88
75153;HTU21D;63734;45.218;36.708;2023-04-28T01:54:18;13.78;95.97
75153;HTU21D;63734;45.218;36.708;2023-04-28T01:56:44;13.76;95.95
75153;HTU21D;63734;45.218;36.708;2023-04-28T01:59:13;13.74;95.91
75153;HTU21D;63734;45.218;36.708;2023-04-28T02:01:39;13.74;95.93
75153;HTU21D;63734;45.218;36.708;2023-04-28T02:04:05;13.70;95.95
75153;HTU21D;63734;45.218;36.708;2023-04-28T02:06:33;13.67;96.00
75153;HTU21D;63734;45.218;36.708;2023-04-28T02:08:59;13.67;95.97
75153;HTU21D;63734;45.218;36.708;2023-04-28T02:11:25;13.67;95.94
75153;HTU21D;63734;45.218;36.708;2023-04-28T02:13:55;13.67;96.07
75153;HTU21D;63734;45.218;36.708;2023-04-28T02:16:20;13.67;96.81
75153;HTU21D;63734;45.218;36.708;2023-04-28T02:18:49;13.61;97.24
75153;HTU21D;63734;45.218;36.708;2023-04-28T02:21:15;13.56;97.20
75153;HTU21D;63734;45.218;36.708;2023-04-28T02:23:43;13.52;97.06
75153;HTU21D;63734;45.218;36.708;2023-04-28T02:26:10;13.50;96.99
75153;HTU21D;63734;45.218;36.708;2023-04-28T02:28:36;13.45;97.38
75153;HTU21D;63734;45.218;36.708;2023-04-28T02:31:05;13.43;97.76
75153;HTU21D;63734;45.218;36.708;2023-04-28T02:33:32;13.38;97.97
75153;HTU21D;63734;45.218;36.708;2023-04-28T02:36:03;13.33;98.23
75153;HTU21D;63734;45.218;36.708;2023-04-28T02:38:29;13.29;98.48
75153;HTU21D;63734;45.218;36.708;2023-04-28T02:41:03;13.23;99.08
75153;HTU21D;63734;45.218;36.708;2023-04-28T02:43:30;13.19;98.93
75153;HTU21D;63734;45.218;36.708;2023-04-28T02:45:56;13.19;98.53
75153;HTU21D;63734;45.218;36.708;2023-04-28T02:48:24;13.21;98.46
75153;HTU21D;63734;45.218;36.708;2023-04-28T02:50:50;13.23;98.66
75153;HTU21D;63734;45.218;36.708;2023-04-28T02:53:18;13.22;99.64
75153;HTU21D;63734;45.218;36.708;2023-04-28T02:55:45;13.19;100.20
75153;HTU21D;63734;45.218;36.708;2023-04-28T02:58:11;13.19;99.95
75153;HTU21D;63734;45.218;36.708;2023-04-28T03:00:37;13.18;100.24
75153;HTU21D;63734;45.218;36.708;2023-04-28T03:03:03;13.17;100.32
75153;HTU21D;63734;45.218;36.708;2023-04-28T03:05:29;13.18;100.02
75153;HTU21D;63734;45.218;36.708;2023-04-28T03:07:55;13.19;99.93
75153;HTU21D;63734;45.218;36.708;2023-04-28T03:10:21;13.23;100.05
75153;HTU21D;63734;45.218;36.708;2023-04-28T03:12:47;13.29;100.05
75153;HTU21D;63734;45.218;36.708;2023-04-28T03:15:13;13.38;100.67
75153;HTU21D;63734;45.218;36.708;2023-04-28T03:17:39;13.47;101.19
75153;HTU21D;63734;45.218;36.708;2023-04-28T03:20:08;13.51;101.49
75153;HTU21D;63734;45.218;36.708;2023-04-28T03:22:34;13.55;101.82
75153;HTU21D;63734;45.218;36.708;2023-04-28T03:25:01;13.58;102.05
75153;HTU21D;63734;45.218;36.708;2023-04-28T03:27:34;13.60;102.24
75153;HTU21D;63734;45.218;36.708;2023-04-28T03:30:04;13.61;102.48
75153;HTU21D;63734;45.218;36.708;2023-04-28T03:32:30;13.64;102.90
75153;HTU21D;63734;45.218;36.708;2023-04-28T03:34:56;13.67;103.05
75153;HTU21D;63734;45.218;36.708;2023-04-28T03:37:22;13.69;103.09
75153;HTU21D;63734;45.218;36.708;2023-04-28T03:39:48;13.70;103.07
75153;HTU21D;63734;45.218;36.708;2023-04-28T03:42:14;13.75;103.34
75153;HTU21D;63734;45.218;36.708;2023-04-28T03:45:07;13.78;103.74
75153;HTU21D;63734;45.218;36.708;2023-04-28T03:47:33;13.79;103.70
75153;HTU21D;63734;45.218;36.708;2023-04-28T03:50:00;13.80;103.85
75153;HTU21D;63734;45.218;36.708;2023-04-28T03:52:25;13.82;103.75
75153;HTU21D;63734;45.218;36.708;2023-04-28T03:54:52;13.81;103.62
75153;HTU21D;63734;45.218;36.708;2023-04-28T03:57:19;13.81;103.37
75153;HTU21D;63734;45.218;36.708;2023-04-28T03:59:44;13.83;103.17
75153;HTU21D;63734;45.218;36.708;2023-04-28T04:02:10;13.85;102.91
75153;HTU21D;63734;45.218;36.708;2023-04-28T04:04:37;13.85;102.60
75153;HTU21D;63734;45.218;36.708;2023-04-28T04:07:03;13.86;102.28
75153;HTU21D;63734;45.218;36.708;2023-04-28T04:09:30;13.89;102.00
75153;HTU21D;63734;45.218;36.708;2023-04-28T04:11:56;13.90;101.68
75153;HTU21D;63734;45.218;36.708;2023-04-28T04:14:23;13.91;101.42
75153;HTU21D;63734;45.218;36.708;2023-04-28T04:16:49;13.93;101.24
75153;HTU21D;63734;45.218;36.708;2023-04-28T04:19:15;13.93;100.92
75153;HTU21D;63734;45.218;36.708;2023-04-28T04:21:43;13.95;100.77
75153;HTU21D;63734;45.218;36.708;2023-04-28T04:24:08;13.97;100.61
75153;HTU21D;63734;45.218;36.708;2023-04-28T04:26:34;13.99;100.41
75153;HTU21D;63734;45.218;36.708;2023-04-28T04:29:04;14.03;100.23
75153;HTU21D;63734;45.218;36.708;2023-04-28T04:31:31;14.04;100.01
75153;HTU21D;63734;45.218;36.708;2023-04-28T04:33:57;14.07;99.80
75153;HTU21D;63734;45.218;36.708;2023-04-28T04:36:23;14.08;99.54
75153;HTU21D;63734;45.218;36.708;2023-04-28T04:38:49;14.11;99.40
75153;HTU21D;63734;45.218;36.708;2023-04-28T04:41:17;14.12;99.19
75153;HTU21D;63734;45.218;36.708;2023-04-28T04:43:46;14.15;99.00
75153;HTU21D;63734;45.218;36.708;2023-04-28T04:46:12;14.17;98.84
75153;HTU21D;63734;45.218;36.708;2023-04-28T04:48:39;14.18;98.71
75153;HTU21D;63734;45.218;36.708;2023-04-28T04:51:05;14.15;98.58
75153;HTU21D;63734;45.218;36.708;2023-04-28T04:53:33;14.09;98.75
75153;HTU21D;63734;45.218;36.708;2023-04-28T04:56:00;14.06;98.97
75153;HTU21D;63734;45.218;36.708;2023-04-28T04:58:26;14.05;98.99
75153;HTU21D;63734;45.218;36.708;2023-04-28T05:01:18;14.04;99.14
75153;HTU21D;63734;45.218;36.708;2023-04-28T05:03:44;14.03;99.25
75153;HTU21D;63734;45.218;36.708;2023-04-28T05:06:10;14.03;99.46
75153;HTU21D;63734;45.218;36.708;2023-04-28T05:08:43;13.99;99.87
75153;HTU21D;63734;45.218;36.708;2023-04-28T05:11:09;13.94;100.23
75153;HTU21D;63734;45.218;36.708;2023-04-28T05:13:37;13.96;100.22
75153;HTU21D;63734;45.218;36.708;2023-04-28T05:16:05;13.98;100.26
75153;HTU21D;63734;45.218;36.708;2023-04-28T05:18:44;14.03;100.25
75153;HTU21D;63734;45.218;36.708;2023-04-28T05:21:10;14.04;100.58
75153;HTU21D;63734;45.218;36.708;2023-04-28T05:23:37;14.04;100.54
75153;HTU21D;63734;45.218;36.708;2023-04-28T05:26:03;14.04;100.48
75153;HTU21D;63734;45.218;36.708;2023-04-28T05:28:30;14.08;100.54
75153;HTU21D;63734;45.218;36.708;2023-04-28T05:30:57;14.07;100.61
75153;HTU21D;63734;45.218;36.708;2023-04-28T05:33:23;14.06;100.74
75153;HTU21D;63734;45.218;36.708;2023-04-28T05:35:49;14.06;100.62
75153;HTU21D;63734;45.218;36.708;2023-04-28T05:38:16;14.07;100.57
75153;HTU21D;63734;45.218;36.708;2023-04-28T05:40:43;14.08;100.58
75153;HTU21D;63734;45.218;36.708;2023-04-28T05:43:11;14.06;100.72
75153;HTU21D;63734;45.218;36.708;2023-04-28T05:45:37;14.08;100.63
75153;HTU21D;63734;45.218;36.708;2023-04-28T05:48:03;14.13;100.46
75153;HTU21D;63734;45.218;36.708;2023-04-28T05:50:30;14.15;100.40
75153;HTU21D;63734;45.218;36.708;2023-04-28T05:52:56;14.19;100.22
75153;HTU21D;63734;45.218;36.708;2023-04-28T05:55:23;14.23;100.17
75153;HTU21D;63734;45.218;36.708;2023-04-28T05:57:52;14.26;100.11
75153;HTU21D;63734;45.218;36.708;2023-04-28T06:00:18;14.28;100.12
75153;HTU21D;63734;45.218;36.708;2023-04-28T06:02:44;14.32;100.20
75153;HTU21D;63734;45.218;36.708;2023-04-28T06:05:10;14.28;100.25
75153;HTU21D;63734;45.218;36.708;2023-04-28T06:07:36;14.26;100.31
75153;HTU21D;63734;45.218;36.708;2023-04-28T06:10:03;14.24;100.53
75153;HTU21D;63734;45.218;36.708;2023-04-28T06:12:30;14.28;100.52
75153;HTU21D;63734;45.218;36.708;2023-04-28T06:14:56;14.33;100.43
75153;HTU21D;63734;45.218;36.708;2023-04-28T06:17:25;14.38;100.26
75153;HTU21D;63734;45.218;36.708;2023-04-28T06:19:51;14.44;100.21
75153;HTU21D;63734;45.218;36.708;2023-04-28T06:22:19;14.51;100.07
75153;HTU21D;63734;45.218;36.708;2023-04-28T06:24:45;14.53;99.90
75153;HTU21D;63734;45.218;36.708;2023-04-28T06:27:16;14.52;99.66
75153;HTU21D;63734;45.218;36.708;2023-04-28T06:29:42;14.50;99.61
75153;HTU21D;63734;45.218;36.708;2023-04-28T06:32:08;14.50;99.51
75153;HTU21D;63734;45.218;36.708;2023-04-28T06:34:36;14.44;99.32
75153;HTU21D;63734;45.218;36.708;2023-04-28T06:37:02;14.40;99.27
75153;HTU21D;63734;45.218;36.708;2023-04-28T06:39:28;14.33;99.32
75153;HTU21D;63734;45.218;36.708;2023-04-28T06:41:54;14.27;99.37
75153;HTU21D;63734;45.218;36.708;2023-04-28T06:44:24;14.22;99.37
75153;HTU21D;63734;45.218;36.708;2023-04-28T06:46:50;14.17;99.51
75153;HTU21D;63734;45.218;36.708;2023-04-28T06:49:16;14.14;99.58
75153;HTU21D;63734;45.218;36.708;2023-04-28T06:51:42;14.10;99.61
75153;HTU21D;63734;45.218;36.708;2023-04-28T06:54:09;14.09;99.68
75153;HTU21D;63734;45.218;36.708;2023-04-28T06:56:36;14.08;99.70
75153;HTU21D;63734;45.218;36.708;2023-04-28T06:59:02;14.09;99.73
75153;HTU21D;63734;45.218;36.708;2023-04-28T07:01:28;14.08;99.76
75153;HTU21D;63734;45.218;36.708;2023-04-28T07:03:54;14.11;99.83
75153;HTU21D;63734;45.218;36.708;2023-04-28T07:06:20;14.14;99.86
75153;HTU21D;63734;45.218;36.708;2023-04-28T07:08:46;14.20;99.90
75153;HTU21D;63734;45.218;36.708;2023-04-28T07:11:12;14.26;99.90
75153;HTU21D;63734;45.218;36.708;2023-04-28T07:13:38;14.36;99.87
75153;HTU21D;63734;45.218;36.708;2023-04-28T07:16:04;14.47;99.71
75153;HTU21D;63734;45.218;36.708;2023-04-28T07:18:30;14.51;99.72
75153;HTU21D;63734;45.218;36.708;2023-04-28T07:20:56;14.56;99.77
75153;HTU21D;63734;45.218;36.708;2023-04-28T07:23:22;14.63;99.77
75153;HTU21D;63734;45.218;36.708;2023-04-28T07:25:48;14.69;99.69
75153;HTU21D;63734;45.218;36.708;2023-04-28T07:28:13;14.79;99.63
75153;HTU21D;63734;45.218;36.708;2023-04-28T07:30:39;14.89;99.51
75153;HTU21D;63734;45.218;36.708;2023-04-28T07:33:05;15.15;99.47
75153;HTU21D;63734;45.218;36.708;2023-04-28T07:35:31;15.32;99.29
75153;HTU21D;63734;45.218;36.708;2023-04-28T07:37:57;15.43;98.91
75153;HTU21D;63734;45.218;36.708;2023-04-28T07:40:24;15.49;98.69
75153;HTU21D;63734;45.218;36.708;2023-04-28T07:42:53;15.49;98.43
75153;HTU21D;63734;45.218;36.708;2023-04-28T07:45:19;15.55;98.34
75153;HTU21D;63734;45.218;36.708;2023-04-28T07:47:45;15.62;98.28
75153;HTU21D;63734;45.218;36.708;2023-04-28T07:50:11;15.69;98.02
75153;HTU21D;63734;45.218;36.708;2023-04-28T07:52:37;15.75;97.81
75153;HTU21D;63734;45.218;36.708;2023-04-28T07:55:04;15.70;97.07
75153;HTU21D;63734;45.218;36.708;2023-04-28T07:57:30;15.68;97.09
75153;HTU21D;63734;45.218;36.708;2023-04-28T07:59:56;15.62;97.10
75153;HTU21D;63734;45.218;36.708;2023-04-28T08:02:22;15.61;97.07
75153;HTU21D;63734;45.218;36.708;2023-04-28T08:04:48;15.53;96.39
75153;HTU21D;63734;45.218;36.708;2023-04-28T08:07:14;15.54;96.83
75153;HTU21D;63734;45.218;36.708;2023-04-28T08:09:40;15.67;96.02
75153;HTU21D;63734;45.218;36.708;2023-04-28T08:12:08;15.91;95.79
75153;HTU21D;63734;45.218;36.708;2023-04-28T08:14:34;16.08;95.26
75153;HTU21D;63734;45.218;36.708;2023-04-28T08:17:00;16.12;94.52
75153;HTU21D;63734;45.218;36.708;2023-04-28T08:19:26;16.07;93.53
75153;HTU21D;63734;45.218;36.708;2023-04-28T08:21:52;16.19;93.59
75153;HTU21D;63734;45.218;36.708;2023-04-28T08:24:18;16.47;92.68
75153;HTU21D;63734;45.218;36.708;2023-04-28T08:26:44;16.84;89.85
75153;HTU21D;63734;45.218;36.708;2023-04-28T08:29:10;16.78;86.97
75153;HTU21D;63734;45.218;36.708;2023-04-28T08:31:37;16.55;87.89
75153;HTU21D;63734;45.218;36.708;2023-04-28T08:34:03;16.26;86.91
75153;HTU21D;63734;45.218;36.708;2023-04-28T08:36:30;16.03;88.30
75153;HTU21D;63734;45.218;36.708;2023-04-28T08:38:59;15.75;88.86
75153;HTU21D;63734;45.218;36.708;2023-04-28T08:41:25;15.57;90.13
75153;HTU21D;63734;45.218;36.708;2023-04-28T08:43:54;15.61;90.76
75153;HTU21D;63734;45.218;36.708;2023-04-28T08:46:21;15.77;91.15
75153;HTU21D;63734;45.218;36.708;2023-04-28T08:48:48;15.80;88.54
75153;HTU21D;63734;45.218;36.708;2023-04-28T08:51:21;15.70;90.08
75153;HTU21D;63734;45.218;36.708;2023-04-28T08:53:53;15.85;89.27
75153;HTU21D;63734;45.218;36.708;2023-04-28T08:56:20;15.87;88.96
75153;HTU21D;63734;45.218;36.708;2023-04-28T08:58:48;16.19;88.67
75153;HTU21D;63734;45.218;36.708;2023-04-28T09:01:14;16.28;86.94
75153;HTU21D;63734;45.218;36.708;2023-04-28T09:03:40;16.39;87.05
75153;HTU21D;63734;45.218;36.708;2023-04-28T09:06:06;16.43;85.82
75153;HTU21D;63734;45.218;36.708;2023-04-28T09:08:32;16.52;85.83
75153;HTU21D;63734;45.218;36.708;2023-04-28T09:11:08;16.49;86.00
75153;HTU21D;63734;45.218;36.708;2023-04-28T09:13:35;16.56;86.97
75153;HTU21D;63734;45.218;36.708;2023-04-28T09:16:02;16.56;87.27
75153;HTU21D;63734;45.218;36.708;2023-04-28T09:18:29;16.50;86.36
75153;HTU21D;63734;45.218;36.708;2023-04-28T09:21:05;16.29;87.08
75153;HTU21D;63734;45.218;36.708;2023-04-28T09:23:32;16.66;87.71
75153;HTU21D;63734;45.218;36.708;2023-04-28T09:28:25;16.59;84.69
75153;HTU21D;63734;45.218;36.708;2023-04-28T09:30:51;16.26;84.88
75153;HTU21D;63734;45.218;36.708;2023-04-28T09:33:17;15.90;85.68
75153;HTU21D;63734;45.218;36.708;2023-04-28T09:35:43;15.57;87.22
75153;HTU21D;63734;45.218;36.708;2023-04-28T09:38:11;15.39;87.72
75153;HTU21D;63734;45.218;36.708;2023-04-28T09:41:00;15.14;89.30
75153;HTU21D;63734;45.218;36.708;2023-04-28T09:43:36;15.04;91.33
75153;HTU21D;63734;45.218;36.708;2023-04-28T09:46:04;14.98;91.56
75153;HTU21D;63734;45.218;36.708;2023-04-28T09:48:39;15.04;92.02
75153;HTU21D;63734;45.218;36.708;2023-04-28T09:51:06;14.95;91.73
75153;HTU21D;63734;45.218;36.708;2023-04-28T09:53:33;14.86;91.89
75153;HTU21D;63734;45.218;36.708;2023-04-28T09:56:01;14.81;92.79
75153;HTU21D;63734;45.218;36.708;2023-04-28T09:58:29;14.75;93.16
75153;HTU21D;63734;45.218;36.708;2023-04-28T10:00:57;14.65;92.77
75153;HTU21D;63734;45.218;36.708;2023-04-28T10:03:28;14.60;93.52
75153;HTU21D;63734;45.218;36.708;2023-04-28T10:05:56;14.69;92.83
75153;HTU21D;63734;45.218;36.708;2023-04-28T10:08:24;14.73;90.86
75153;HTU21D;63734;45.218;36.708;2023-04-28T10:10:52;14.75;90.93
75153;HTU21D;63734;45.218;36.708;2023-04-28T10:13:20;14.83;91.06
75153;HTU21D;63734;45.218;36.708;2023-04-28T10:15:47;14.92;90.79
75153;HTU21D;63734;45.218;36.708;2023-04-28T10:18:13;14.87;89.60
75153;HTU21D;63734;45.218;36.708;2023-04-28T10:20:45;14.63;90.08
75153;HTU21D;63734;45.218;36.708;2023-04-28T10:26:17;14.64;90.37
75153;HTU21D;63734;45.218;36.708;2023-04-28T10:28:48;14.74;90.02
75153;HTU21D;63734;45.218;36.708;2023-04-28T10:31:19;14.87;88.47
75153;HTU21D;63734;45.218;36.708;2023-04-28T10:33:46;14.87;88.16
75153;HTU21D;63734;45.218;36.708;2023-04-28T10:36:45;14.88;88.22
75153;HTU21D;63734;45.218;36.708;2023-04-28T10:39:12;14.88;87.85
75153;HTU21D;63734;45.218;36.708;2023-04-28T10:41:38;14.98;88.49
75153;HTU21D;63734;45.218;36.708;2023-04-28T10:47:04;15.39;87.64
75153;HTU21D;63734;45.218;36.708;2023-04-28T11:00:49;15.45;87.32
75153;HTU21D;63734;45.218;36.708;2023-04-28T11:04:17;15.43;88.15
75153;HTU21D;63734;45.218;36.708;2023-04-28T11:06:42;15.38;88.82
75153;HTU21D;63734;45.218;36.708;2023-04-28T11:11:38;15.38;89.52
75153;HTU21D;63734;45.218;36.708;2023-04-28T11:19:30;15.09;91.93
75153;HTU21D;63734;45.218;36.708;2023-04-28T11:22:03;15.21;91.40
75153;HTU21D;63734;45.218;36.708;2023-04-28T11:24:30;15.24;90.78
75153;HTU21D;63734;45.218;36.708;2023-04-28T11:26:57;15.09;90.57
75153;HTU21D;63734;45.218;36.708;2023-04-28T11:29:37;15.08;91.39
75153;HTU21D;63734;45.218;36.708;2023-04-28T11:32:07;15.11;91.00
75153;HTU21D;63734;45.218;36.708;2023-04-28T11:34:34;15.17;91.19
75153;HTU21D;63734;45.218;36.708;2023-04-28T11:37:01;15.10;90.98
75153;HTU21D;63734;45.218;36.708;2023-04-28T11:39:32;15.02;91.21
75153;HTU21D;63734;45.218;36.708;2023-04-28T11:42:09;14.98;91.36
75153;HTU21D;63734;45.218;36.708;2023-04-28T11:44:35;15.01;91.53
75153;HTU21D;63734;45.218;36.708;2023-04-28T11:47:02;15.03;90.87
75153;HTU21D;63734;45.218;36.708;2023-04-28T11:49:44;15.06;90.60
75153;HTU21D;63734;45.218;36.708;2023-04-28T11:52:11;15.06;90.76
75153;HTU21D;63734;45.218;36.708;2023-04-28T11:54:37;14.98;90.32
75153;HTU21D;63734;45.218;36.708;2023-04-28T11:57:04;14.98;90.69
75153;HTU21D;63734;45.218;36.708;2023-04-28T11:59:32;15.02;89.57
75153;HTU21D;63734;45.218;36.708;2023-04-28T12:02:03;14.99;89.12
75153;HTU21D;63734;45.218;36.708;2023-04-28T12:04:37;14.94;89.03
75153;HTU21D;63734;45.218;36.708;2023-04-28T12:07:07;14.98;88.96
75153;HTU21D;63734;45.218;36.708;2023-04-28T12:09:37;15.07;88.62
75153;HTU21D;63734;45.218;36.708;2023-04-28T12:12:05;15.16;88.46
75153;HTU21D;63734;45.218;36.708;2023-04-28T12:14:52;15.17;87.72
75153;HTU21D;63734;45.218;36.708;2023-04-28T12:17:38;15.11;87.80
75153;HTU21D;63734;45.218;36.708;2023-04-28T12:20:09;15.06;88.18
75153;HTU21D;63734;45.218;36.708;2023-04-28T12:22:48;14.99;88.27
75153;HTU21D;63734;45.218;36.708;2023-04-28T12:25:17;15.02;88.30
75153;HTU21D;63734;45.218;36.708;2023-04-28T12:27:59;15.06;88.28
75153;HTU21D;63734;45.218;36.708;2023-04-28T12:30:30;15.02;88.24
75153;HTU21D;63734;45.218;36.708;2023-04-28T12:32:56;14.98;88.32
75153;HTU21D;63734;45.218;36.708;2023-04-28T12:35:27;14.92;88.96
75153;HTU21D;63734;45.218;36.708;2023-04-28T12:37:54;14.98;89.55
75153;HTU21D;63734;45.218;36.708;2023-04-28T12:40:21;15.01;89.60
75153;HTU21D;63734;45.218;36.708;2023-04-28T12:42:47;14.92;89.50
75153;HTU21D;63734;45.218;36.708;2023-04-28T12:45:14;14.80;90.00
75153;HTU21D;63734;45.218;36.708;2023-04-28T12:47:41;14.71;90.59
75153;HTU21D;63734;45.218;36.708;2023-04-28T12:50:07;14.77;91.38
75153;HTU21D;63734;45.218;36.708;2023-04-28T12:52:34;14.80;92.56
75153;HTU21D;63734;45.218;36.708;2023-04-28T12:55:01;14.78;92.26
75153;HTU21D;63734;45.218;36.708;2023-04-28T12:57:27;14.64;92.74
75153;HTU21D;63734;45.218;36.708;2023-04-28T12:59:54;14.63;93.78
75153;HTU21D;63734;45.218;36.708;2023-04-28T13:02:22;14.68;93.68
75153;HTU21D;63734;45.218;36.708;2023-04-28T13:04:48;14.62;93.27
75153;HTU21D;63734;45.218;36.708;2023-04-28T13:07:15;14.56;93.52
75153;HTU21D;63734;45.218;36.708;2023-04-28T13:09:41;14.49;93.97
75153;HTU21D;63734;45.218;36.708;2023-04-28T13:12:08;14.38;94.30
75153;HTU21D;63734;45.218;36.708;2023-04-28T13:14:36;14.25;95.04
75153;HTU21D;63734;45.218;36.708;2023-04-28T13:17:02;14.19;95.70
75153;HTU21D;63734;45.218;36.708;2023-04-28T13:19:28;14.12;96.43
75153;HTU21D;63734;45.218;36.708;2023-04-28T13:21:55;14.06;97.07
75153;HTU21D;63734;45.218;36.708;2023-04-28T13:24:22;13.97;97.91
75153;HTU21D;63734;45.218;36.708;2023-04-28T13:26:48;13.93;98.10
75153;HTU21D;63734;45.218;36.708;2023-04-28T13:29:13;13.93;98.45
75153;HTU21D;63734;45.218;36.708;2023-04-28T13:31:40;13.91;99.03
75153;HTU21D;63734;45.218;36.708;2023-04-28T13:34:06;13.91;98.99
75153;HTU21D;63734;45.218;36.708;2023-04-28T13:36:33;13.95;98.84
75153;HTU21D;63734;45.218;36.708;2023-04-28T13:39:00;13.98;98.76
75153;HTU21D;63734;45.218;36.708;2023-04-28T13:41:26;14.03;98.80
75153;HTU21D;63734;45.218;36.708;2023-04-28T13:43:52;14.04;98.57
75153;HTU21D;63734;45.218;36.708;2023-04-28T13:46:19;14.05;98.48
75153;HTU21D;63734;45.218;36.708;2023-04-28T13:48:45;14.03;98.64
75153;HTU21D;63734;45.218;36.708;2023-04-28T13:51:12;13.98;98.94
75153;HTU21D;63734;45.218;36.708;2023-04-28T13:53:38;13.95;99.26
75153;HTU21D;63734;45.218;36.708;2023-04-28T13:56:07;13.91;99.81
75153;HTU21D;63734;45.218;36.708;2023-04-28T13:58:34;13.89;100.17
75153;HTU21D;63734;45.218;36.708;2023-04-28T14:01:00;13.86;100.67
75153;HTU21D;63734;45.218;36.708;2023-04-28T14:03:29;13.88;101.19
75153;HTU21D;63734;45.218;36.708;2023-04-28T14:05:56;13.88;101.23
75153;HTU21D;63734;45.218;36.708;2023-04-28T14:08:23;13.89;101.21
75153;HTU21D;63734;45.218;36.708;2023-04-28T14:10:50;13.89;101.28
75153;HTU21D;63734;45.218;36.708;2023-04-28T14:13:17;13.85;101.51
75153;HTU21D;63734;45.218;36.708;2023-04-28T14:15:44;13.82;101.47
75153;HTU21D;63734;45.218;36.708;2023-04-28T14:18:11;13.81;101.40
75153;HTU21D;63734;45.218;36.708;2023-04-28T14:20:38;13.79;101.28
75153;HTU21D;63734;45.218;36.708;2023-04-28T14:23:04;13.69;101.32
75153;HTU21D;63734;45.218;36.708;2023-04-28T14:25:30;13.68;101.28
75153;HTU21D;63734;45.218;36.708;2023-04-28T14:27:59;13.70;101.22
75153;HTU21D;63734;45.218;36.708;2023-04-28T14:30:25;13.70;101.03
75153;HTU21D;63734;45.218;36.708;2023-04-28T14:32:51;13.71;100.91
75153;HTU21D;63734;45.218;36.708;2023-04-28T14:35:17;13.74;100.73
75153;HTU21D;63734;45.218;36.708;2023-04-28T14:37:46;13.75;100.57
75153;HTU21D;63734;45.218;36.708;2023-04-28T14:40:13;13.77;100.55
75153;HTU21D;63734;45.218;36.708;2023-04-28T14:42:43;13.80;100.41
75153;HTU21D;63734;45.218;36.708;2023-04-28T14:45:10;13.82;100.29
75153;HTU21D;63734;45.218;36.708;2023-04-28T14:47:37;13.83;100.18
75153;HTU21D;63734;45.218;36.708;2023-04-28T14:50:04;13.82;100.22
75153;HTU21D;63734;45.218;36.708;2023-04-28T14:52:31;13.78;100.23
75153;HTU21D;63734;45.218;36.708;2023-04-28T14:54:59;13.77;100.20
75153;HTU21D;63734;45.218;36.708;2023-04-28T14:57:26;13.74;100.04
75153;HTU21D;63734;45.218;36.708;2023-04-28T14:59:53;13.71;100.07
75153;HTU21D;63734;45.218;36.708;2023-04-28T15:02:20;13.73;99.96
75153;HTU21D;63734;45.218;36.708;2023-04-28T15:04:51;13.71;99.88
75153;HTU21D;63734;45.218;36.708;2023-04-28T15:07:17;13.69;99.69
75153;HTU21D;63734;45.218;36.708;2023-04-28T15:09:43;13.69;99.59
75153;HTU21D;63734;45.218;36.708;2023-04-28T15:12:09;13.67;99.46
75153;HTU21D;63734;45.218;36.708;2023-04-28T15:14:35;13.66;99.45
75153;HTU21D;63734;45.218;36.708;2023-04-28T15:17:01;13.67;99.34
75153;HTU21D;63734;45.218;36.708;2023-04-28T15:19:31;13.64;99.29
75153;HTU21D;63734;45.218;36.708;2023-04-28T15:21:57;13.66;99.24
75153;HTU21D;63734;45.218;36.708;2023-04-28T15:24:24;13.68;99.13
75153;HTU21D;63734;45.218;36.708;2023-04-28T15:26:50;13.66;99.12
75153;HTU21D;63734;45.218;36.708;2023-04-28T15:29:16;13.65;99.17